Time;durP1;ratioP1;P1;durP2;ratioP2;P2;SDS_P1;SDS_P2;PMS_P1;PMS_P2;Temp;Humidity;BMP_temperature;BMP_pressure;BME280_temperature;BME280_humidity;BME280_pressure;Samples;Min_cycle;Max_cycle;Signal;HPM_P1;HPM_P2
2022/07/05 00:01:18;;;;;;;2.77;1.40;;;21.80;86.80;;;;;;4951018;28;20278;-70
2022/07/05 00:03:44;;;;;;;2.77;1.50;;;21.80;86.70;;;;;;4952881;28;20183;-73
2022/07/05 00:06:10;;;;;;;3.83;1.40;;;21.70;86.90;;;;;;4967277;28;20309;-70
2022/07/05 00:08:38;;;;;;;1.63;1.20;;;21.70;86.60;;;;;;4967052;28;20265;-73
2022/07/05 00:11:05;;;;;;;2.07;1.40;;;21.60;87.00;;;;;;4951755;28;20199;-71
2022/07/05 00:13:31;;;;;;;2.17;1.53;;;21.60;86.90;;;;;;4975143;28;20195;-70
2022/07/05 00:15:58;;;;;;;2.87;1.50;;;21.70;86.80;;;;;;4973950;28;20217;-70
2022/07/05 00:18:24;;;;;;;2.17;1.47;;;21.70;86.90;;;;;;4954056;28;20226;-71
2022/07/05 00:20:50;;;;;;;2.23;1.20;;;21.70;87.00;;;;;;4953330;28;20196;-71
2022/07/05 00:23:17;;;;;;;9.80;1.80;;;21.70;86.70;;;;;;4963589;28;20209;-70
2022/07/05 00:25:44;;;;;;;2.90;1.50;;;21.70;87.00;;;;;;4964226;28;20198;-70
2022/07/05 00:28:10;;;;;;;4.77;1.67;;;21.60;86.10;;;;;;4963763;28;20477;-69
2022/07/05 00:30:37;;;;;;;4.90;1.57;;;21.60;86.40;;;;;;4959683;28;20282;-71
2022/07/05 00:33:03;;;;;;;2.33;1.57;;;21.50;86.60;;;;;;4981594;28;20254;-72
2022/07/05 00:35:30;;;;;;;4.57;1.40;;;21.50;87.00;;;;;;4962814;28;20253;-73
2022/07/05 00:37:56;;;;;;;3.43;1.40;;;21.50;87.20;;;;;;4953314;28;20273;-72
2022/07/05 00:40:22;;;;;;;2.30;1.40;;;21.50;86.60;;;;;;4956947;28;20194;-71
2022/07/05 00:42:49;;;;;;;3.43;1.70;;;21.50;87.50;;;;;;4952329;28;20197;-72
2022/07/05 00:45:15;;;;;;;1.77;1.33;;;21.50;88.00;;;;;;4963239;28;20281;-72
2022/07/05 00:47:43;;;;;;;2.33;1.30;;;21.50;87.80;;;;;;4961728;28;20307;-70
2022/07/05 00:50:10;;;;;;;2.33;1.60;;;21.50;87.80;;;;;;4952963;28;20195;-73
2022/07/05 00:52:37;;;;;;;2.60;1.37;;;21.60;88.10;;;;;;4950692;28;20187;-68
2022/07/05 00:55:05;;;;;;;2.73;1.60;;;21.60;88.10;;;;;;4959914;28;20222;-71
2022/07/05 00:57:33;;;;;;;3.87;1.60;;;21.60;88.00;;;;;;4977574;28;21050;-71
2022/07/05 00:59:59;;;;;;;3.73;1.63;;;21.70;86.90;;;;;;4959171;28;20698;-71
2022/07/05 01:02:25;;;;;;;3.50;1.53;;;21.70;87.20;;;;;;4970902;28;20548;-71
2022/07/05 01:04:52;;;;;;;2.43;1.50;;;21.70;87.40;;;;;;4959083;28;20209;-70
2022/07/05 01:07:23;;;;;;;3.60;1.50;;;21.70;87.60;;;;;;4957785;28;20640;-70
2022/07/05 01:09:50;;;;;;;3.00;1.60;;;21.70;87.50;;;;;;4960495;28;20202;-70
2022/07/05 01:12:17;;;;;;;2.80;1.50;;;21.70;87.20;;;;;;4953838;28;20682;-70
2022/07/05 01:14:45;;;;;;;3.73;1.50;;;21.70;87.50;;;;;;4945358;29;20215;-71
2022/07/05 01:17:13;;;;;;;3.07;1.40;;;21.70;87.50;;;;;;4932577;28;20594;-70
2022/07/05 01:19:39;;;;;;;2.17;1.47;;;21.60;87.90;;;;;;4955852;28;20245;-71
2022/07/05 01:22:23;;;;;;;5.70;1.40;;;21.70;88.00;;;;;;4950429;29;20333;-70
2022/07/05 01:24:51;;;;;;;2.10;1.40;;;21.60;88.20;;;;;;4957992;28;20231;-71
2022/07/05 01:27:20;;;;;;;3.40;1.40;;;21.70;88.30;;;;;;4959477;28;20221;-71
2022/07/05 01:29:46;;;;;;;2.50;1.50;;;21.70;88.40;;;;;;4951770;28;20686;-72
2022/07/05 01:32:14;;;;;;;4.07;1.60;;;21.70;88.30;;;;;;4964104;28;20270;-70
2022/07/05 01:34:41;;;;;;;4.77;1.53;;;21.70;88.10;;;;;;4958043;28;20207;-70
2022/07/05 01:37:10;;;;;;;3.60;1.50;;;21.70;88.50;;;;;;4959603;28;20233;-72
2022/07/05 01:39:37;;;;;;;2.40;1.50;;;21.60;88.50;;;;;;4964979;28;20192;-69
2022/07/05 01:42:05;;;;;;;2.60;1.40;;;21.60;88.60;;;;;;4971519;28;20210;-71
2022/07/05 01:44:31;;;;;;;2.37;1.60;;;21.60;88.80;;;;;;4954732;28;20517;-73
2022/07/05 01:47:06;;;;;;;5.63;1.80;;;21.60;88.80;;;;;;4951887;28;20191;-70
2022/07/05 01:49:40;;;;;;;2.93;1.67;;;21.50;88.80;;;;;;4949071;28;20201;-72
2022/07/05 01:52:16;;;;;;;3.27;1.50;;;21.40;88.70;;;;;;4959476;28;20206;-72
2022/07/05 01:54:43;;;;;;;4.13;1.97;;;21.40;88.70;;;;;;4976983;28;20214;-72
2022/07/05 01:57:10;;;;;;;2.00;1.20;;;21.40;88.40;;;;;;4944931;28;20197;-71
2022/07/05 01:59:37;;;;;;;2.63;1.40;;;21.40;88.10;;;;;;4956106;28;20260;-69
2022/07/05 02:02:05;;;;;;;3.13;1.30;;;21.40;87.60;;;;;;4966017;28;20195;-72
2022/07/05 02:04:35;;;;;;;4.80;1.50;;;21.40;87.50;;;;;;4957172;28;20395;-70
2022/07/05 02:07:08;;;;;;;3.87;1.60;;;21.40;87.00;;;;;;4967492;28;20280;-70
2022/07/05 02:09:36;;;;;;;2.93;1.50;;;21.40;86.60;;;;;;4956807;28;20206;-71
2022/07/05 02:12:04;;;;;;;3.87;1.50;;;21.50;85.90;;;;;;4947015;29;20710;-71
2022/07/05 02:14:32;;;;;;;4.53;1.50;;;21.40;85.50;;;;;;4955646;28;20211;-72
2022/07/05 02:16:58;;;;;;;5.47;1.60;;;21.40;84.50;;;;;;4957016;28;20203;-69
2022/07/05 02:19:24;;;;;;;1.80;1.30;;;21.40;84.80;;;;;;4953726;28;20281;-72
2022/07/05 02:21:51;;;;;;;1.60;1.17;;;21.40;84.30;;;;;;4962878;28;20198;-70
2022/07/05 02:24:17;;;;;;;1.50;1.00;;;21.50;83.30;;;;;;4959777;28;20198;-71
2022/07/05 02:26:44;;;;;;;1.60;1.20;;;21.50;83.40;;;;;;4977963;28;20194;-71
2022/07/05 02:29:10;;;;;;;2.00;1.30;;;21.50;83.00;;;;;;4959227;28;20205;-71
2022/07/05 02:31:38;;;;;;;2.03;1.30;;;21.50;82.80;;;;;;4960432;28;20217;-72
2022/07/05 02:34:04;;;;;;;3.40;1.30;;;21.50;81.30;;;;;;4974527;28;20198;-71
2022/07/05 02:36:30;;;;;;;3.17;1.37;;;21.40;80.30;;;;;;4956727;28;20225;-72
2022/07/05 02:38:57;;;;;;;2.33;1.40;;;21.40;80.30;;;;;;4961746;28;20686;-72
2022/07/05 02:41:23;;;;;;;1.20;0.90;;;21.40;79.70;;;;;;4962657;28;20257;-71
2022/07/05 02:43:52;;;;;;;3.40;1.20;;;21.40;79.40;;;;;;4969667;28;20186;-73
2022/07/05 02:46:19;;;;;;;2.03;1.23;;;21.40;79.10;;;;;;4974669;28;20210;-70
2022/07/05 02:48:45;;;;;;;2.47;1.10;;;21.40;78.90;;;;;;4943801;28;20716;-70
2022/07/05 02:51:12;;;;;;;2.80;1.40;;;21.40;78.60;;;;;;4934242;29;20195;-71
2022/07/05 02:53:38;;;;;;;4.77;1.50;;;21.40;78.40;;;;;;4949097;29;20201;-71
2022/07/05 02:56:05;;;;;;;3.70;1.30;;;21.30;78.10;;;;;;4950370;28;20261;-70
2022/07/05 02:58:33;;;;;;;3.17;1.33;;;21.30;78.10;;;;;;4971070;28;20245;-69
2022/07/05 03:01:00;;;;;;;4.33;1.07;;;21.40;77.70;;;;;;4952265;28;20198;-70
2022/07/05 03:03:26;;;;;;;2.37;1.20;;;21.40;77.90;;;;;;4937059;29;20198;-69
2022/07/05 03:05:53;;;;;;;5.07;1.57;;;21.30;77.50;;;;;;4978747;28;20194;-71
2022/07/05 03:08:19;;;;;;;2.00;1.30;;;21.40;77.70;;;;;;4965653;28;20194;-71
2022/07/05 03:10:46;;;;;;;1.77;1.27;;;21.40;77.80;;;;;;4970569;28;20203;-71
2022/07/05 03:13:13;;;;;;;2.93;1.03;;;21.40;77.90;;;;;;4951122;28;20222;-71
2022/07/05 03:15:39;;;;;;;2.40;1.10;;;21.40;78.00;;;;;;4946772;28;20215;-70
2022/07/05 03:18:06;;;;;;;3.20;0.90;;;21.30;78.20;;;;;;4946296;28;20238;-69
2022/07/05 03:20:33;;;;;;;4.37;1.10;;;21.30;78.50;;;;;;4959484;28;20257;-73
2022/07/05 03:23:00;;;;;;;6.47;1.30;;;21.30;78.50;;;;;;4968934;28;20648;-70
2022/07/05 03:25:26;;;;;;;1.57;1.00;;;21.30;78.30;;;;;;4941247;28;20266;-71
2022/07/05 03:27:53;;;;;;;2.77;1.10;;;21.30;78.50;;;;;;4960873;28;20226;-70
2022/07/05 03:30:21;;;;;;;3.57;1.20;;;21.30;78.40;;;;;;4963622;28;20199;-70
2022/07/05 03:32:47;;;;;;;2.53;1.23;;;21.30;78.60;;;;;;4969367;28;20194;-71
2022/07/05 03:35:14;;;;;;;2.20;1.30;;;21.30;78.60;;;;;;4965096;28;20242;-72
2022/07/05 03:37:40;;;;;;;1.87;1.30;;;21.30;79.40;;;;;;4946063;28;20210;-71
2022/07/05 03:40:08;;;;;;;2.60;1.30;;;21.40;79.20;;;;;;4960238;28;20206;-73
2022/07/05 03:42:35;;;;;;;1.13;1.00;;;21.40;79.30;;;;;;4982611;28;20285;-72
2022/07/05 03:45:03;;;;;;;5.30;1.23;;;21.40;79.80;;;;;;4971841;28;20186;-71
2022/07/05 03:47:29;;;;;;;2.07;1.20;;;21.40;80.00;;;;;;4971871;28;20203;-70
2022/07/05 03:49:55;;;;;;;3.80;1.20;;;21.40;79.70;;;;;;4934523;28;20234;-72
2022/07/05 03:52:25;;;;;;;2.13;1.13;;;21.40;80.10;;;;;;4962643;28;20186;-70
2022/07/05 03:54:51;;;;;;;1.80;1.30;;;21.50;80.80;;;;;;4952259;28;20234;-71
2022/07/05 03:57:17;;;;;;;3.30;1.20;;;21.50;79.90;;;;;;4960499;28;20311;-72
2022/07/05 03:59:44;;;;;;;1.30;1.20;;;21.50;79.80;;;;;;4967022;28;20652;-69
2022/07/05 04:02:10;;;;;;;2.50;0.90;;;21.50;80.20;;;;;;4968834;28;20702;-70
2022/07/05 04:04:37;;;;;;;4.43;1.30;;;21.50;80.90;;;;;;4966950;28;20203;-70
2022/07/05 04:07:06;;;;;;;2.63;1.20;;;21.60;80.70;;;;;;4968123;28;20195;-69
2022/07/05 04:09:36;;;;;;;3.17;1.20;;;21.60;81.10;;;;;;4955517;28;20631;-71
2022/07/05 04:12:04;;;;;;;1.53;1.07;;;21.50;81.20;;;;;;4956610;28;20302;-70
2022/07/05 04:14:33;;;;;;;1.67;1.30;;;21.60;82.00;;;;;;4957577;28;20217;-69
2022/07/05 04:17:02;;;;;;;3.27;1.30;;;21.60;81.60;;;;;;4958244;28;20213;-70
2022/07/05 04:19:30;;;;;;;2.10;1.20;;;21.60;81.40;;;;;;4966474;28;20893;-70
2022/07/05 04:21:56;;;;;;;2.03;1.00;;;21.70;81.60;;;;;;4958560;28;20194;-70
2022/07/05 04:24:22;;;;;;;1.93;1.30;;;21.80;82.80;;;;;;4966433;28;20242;-70
2022/07/05 04:26:49;;;;;;;2.13;1.20;;;21.90;83.70;;;;;;4951971;28;20189;-71
2022/07/05 04:29:15;;;;;;;2.00;1.20;;;21.90;84.20;;;;;;4943143;29;20333;-73
2022/07/05 04:31:42;;;;;;;1.60;1.13;;;22.00;84.80;;;;;;4967361;28;20195;-70
2022/07/05 04:34:09;;;;;;;1.30;1.20;;;22.10;85.30;;;;;;4966917;28;20520;-69
2022/07/05 04:36:40;;;;;;;1.50;0.90;;;22.20;85.80;;;;;;4952152;29;20297;-73
2022/07/05 04:39:07;;;;;;;1.40;0.93;;;22.30;85.60;;;;;;4959025;28;20781;-72
2022/07/05 04:41:35;;;;;;;2.43;1.20;;;22.40;85.50;;;;;;4974290;28;20191;-71
2022/07/05 04:44:01;;;;;;;1.57;1.23;;;22.50;84.90;;;;;;4956049;28;20537;-73
2022/07/05 04:46:28;;;;;;;1.60;1.00;;;22.60;85.60;;;;;;4963700;28;20916;-72
2022/07/05 04:48:54;;;;;;;2.63;1.10;;;22.70;86.10;;;;;;4960422;28;20595;-71
2022/07/05 04:51:20;;;;;;;1.03;0.90;;;22.80;85.60;;;;;;4960226;28;20195;-71
2022/07/05 04:53:46;;;;;;;1.40;1.00;;;23.00;84.90;;;;;;4951963;28;20190;-71
2022/07/05 04:56:14;;;;;;;1.57;1.10;;;23.10;83.80;;;;;;4963112;28;20289;-72
2022/07/05 04:58:40;;;;;;;1.50;1.15;;;23.20;83.10;;;;;;4951912;28;20711;-72
2022/07/05 05:01:06;;;;;;;2.90;1.10;;;23.30;83.60;;;;;;4967123;28;20202;-71
2022/07/05 05:03:35;;;;;;;2.75;1.10;;;23.30;84.10;;;;;;4934609;29;20337;-71
2022/07/05 05:06:05;;;;;;;4.55;1.00;;;23.40;84.80;;;;;;4966792;28;20285;-72
2022/07/05 05:08:32;;;;;;;1.27;1.00;;;23.50;83.90;;;;;;4934148;29;20198;-71
2022/07/05 05:10:58;;;;;;;2.23;1.07;;;23.60;84.60;;;;;;4923965;28;20232;-70
2022/07/05 05:13:25;;;;;;;3.53;1.08;;;23.70;80.90;;;;;;4935210;29;20191;-69
2022/07/05 05:15:51;;;;;;;2.67;1.20;;;23.80;79.90;;;;;;4959957;28;20730;-74
2022/07/05 05:18:21;;;;;;;1.42;1.02;;;23.90;80.60;;;;;;4959561;28;20199;-72
2022/07/05 05:20:47;;;;;;;2.40;0.88;;;23.90;79.60;;;;;;4966321;28;20236;-73
2022/07/05 05:23:13;;;;;;;1.23;0.90;;;24.00;79.00;;;;;;4948190;28;20194;-71
2022/07/05 05:25:40;;;;;;;2.45;1.00;;;24.10;77.60;;;;;;4959966;28;20256;-72
2022/07/05 05:28:09;;;;;;;0.80;0.80;;;24.20;77.50;;;;;;4958501;28;20198;-72
2022/07/05 05:30:36;;;;;;;1.20;0.88;;;24.20;74.20;;;;;;4965693;28;20699;-72
2022/07/05 05:33:02;;;;;;;1.15;0.90;;;24.30;74.60;;;;;;4956577;28;20198;-71
2022/07/05 05:35:29;;;;;;;5.30;1.10;;;24.30;77.70;;;;;;4958586;28;20226;-71
2022/07/05 05:37:56;;;;;;;5.32;1.20;;;24.40;73.30;;;;;;4960828;28;20209;-72
2022/07/05 05:40:24;;;;;;;1.15;0.98;;;24.40;72.70;;;;;;4950241;28;20332;-70
2022/07/05 05:42:52;;;;;;;1.20;1.00;;;24.50;74.40;;;;;;4963498;28;20279;-72
2022/07/05 05:45:21;;;;;;;1.65;1.15;;;24.50;76.60;;;;;;4958446;28;20558;-74
2022/07/05 05:47:56;;;;;;;1.35;0.93;;;24.60;75.50;;;;;;4954166;28;20191;-74
2022/07/05 05:50:29;;;;;;;6.28;1.00;;;24.70;75.80;;;;;;4962695;28;20537;-74
2022/07/05 05:52:56;;;;;;;7.97;1.33;;;24.70;75.10;;;;;;4970289;28;20241;-74
2022/07/05 05:55:25;;;;;;;2.47;1.13;;;24.70;75.00;;;;;;4959529;28;20264;-74
2022/07/05 05:57:51;;;;;;;1.85;0.82;;;24.80;75.00;;;;;;4962929;28;20512;-74
2022/07/05 06:00:20;;;;;;;1.80;0.90;;;24.90;74.10;;;;;;4968582;28;20174;-71
2022/07/05 06:02:49;;;;;;;1.58;1.20;;;24.90;75.40;;;;;;4951411;28;20197;-72
2022/07/05 06:05:16;;;;;;;1.23;1.00;;;25.00;74.90;;;;;;4956575;28;20178;-70
2022/07/05 06:07:51;;;;;;;3.22;0.93;;;25.10;73.10;;;;;;4950697;28;20191;-72
2022/07/05 06:10:24;;;;;;;2.97;1.00;;;25.30;73.40;;;;;;4956788;28;20727;-70
2022/07/05 06:12:53;;;;;;;4.07;1.10;;;25.40;72.20;;;;;;4955186;28;20559;-72
2022/07/05 06:15:20;;;;;;;1.15;0.98;;;25.50;73.80;;;;;;4964724;28;20218;-74
2022/07/05 06:17:48;;;;;;;1.20;0.80;;;25.50;77.50;;;;;;4957204;28;20202;-71
2022/07/05 06:20:20;;;;;;;1.63;1.20;;;25.60;74.30;;;;;;4957508;28;20223;-71
2022/07/05 06:22:48;;;;;;;4.03;0.98;;;25.70;72.60;;;;;;4963018;28;20201;-73
2022/07/05 06:25:15;;;;;;;2.33;1.20;;;25.80;72.90;;;;;;4948295;29;20216;-72
2022/07/05 06:27:48;;;;;;;2.97;1.00;;;26.00;70.90;;;;;;4956546;28;20211;-72
2022/07/05 06:30:18;;;;;;;7.57;1.10;;;26.10;70.90;;;;;;4947450;28;20211;-71
2022/07/05 06:32:46;;;;;;;5.32;1.10;;;26.20;72.50;;;;;;4927408;28;20334;-71
2022/07/05 06:35:13;;;;;;;3.83;1.33;;;26.20;69.90;;;;;;4954500;28;20312;-72
2022/07/05 06:37:52;;;;;;;2.38;0.90;;;26.40;69.80;;;;;;4967935;28;20195;-72
2022/07/05 06:40:31;;;;;;;2.45;1.13;;;26.60;71.90;;;;;;4951423;28;20536;-71
2022/07/05 06:43:01;;;;;;;4.93;1.42;;;26.70;70.10;;;;;;4940227;29;20191;-72
2022/07/05 06:45:28;;;;;;;5.63;1.30;;;26.80;71.80;;;;;;4945646;28;20194;-70
2022/07/05 06:47:59;;;;;;;3.30;1.30;;;27.00;72.40;;;;;;4954453;28;20412;-71
2022/07/05 06:50:31;;;;;;;1.98;1.23;;;27.10;73.60;;;;;;4946083;28;20194;-70
2022/07/05 06:52:58;;;;;;;4.63;1.30;;;27.30;74.00;;;;;;4947607;28;20226;-71
2022/07/05 06:55:27;;;;;;;3.90;1.60;;;27.40;73.90;;;;;;4963551;28;20221;-71
2022/07/05 06:58:03;;;;;;;4.47;1.33;;;27.50;75.60;;;;;;4964691;28;20295;-70
2022/07/05 07:00:31;;;;;;;3.95;1.50;;;27.60;77.00;;;;;;4930383;29;20233;-72
2022/07/05 07:02:58;;;;;;;3.53;1.52;;;27.70;77.10;;;;;;4949656;28;20209;-71
2022/07/05 07:05:26;;;;;;;7.78;1.65;;;27.80;77.90;;;;;;4951165;28;20191;-70
2022/07/05 07:10:38;;;;;;;3.85;1.85;;;28.10;79.00;;;;;;4961710;28;20186;-71
2022/07/05 07:13:05;;;;;;;3.80;1.60;;;28.20;80.70;;;;;;4946700;28;20311;-72
2022/07/05 07:15:33;;;;;;;4.80;1.52;;;28.20;80.30;;;;;;4949224;28;20652;-71
2022/07/05 07:18:00;;;;;;;4.32;1.50;;;28.30;81.20;;;;;;4942996;29;20286;-71
2022/07/05 07:20:27;;;;;;;2.47;1.50;;;28.40;81.60;;;;;;4954724;28;20667;-70
2022/07/05 07:22:53;;;;;;;7.22;2.08;;;28.50;80.30;;;;;;4974868;28;20201;-71
2022/07/05 07:25:20;;;;;;;2.53;1.48;;;28.60;79.20;;;;;;4960626;28;20187;-73
2022/07/05 07:27:49;;;;;;;7.25;1.30;;;28.60;78.70;;;;;;4954832;28;20551;-71
2022/07/05 07:30:31;;;;;;;5.50;1.80;;;28.70;80.00;;;;;;4970297;28;20652;-72
2022/07/05 07:32:57;;;;;;;5.57;1.70;;;28.80;80.80;;;;;;4962740;28;20218;-73
2022/07/05 07:35:24;;;;;;;4.30;1.73;;;28.90;82.80;;;;;;4943365;28;20231;-70
2022/07/05 07:37:50;;;;;;;2.95;1.70;;;29.00;82.70;;;;;;4950558;28;20883;-71
2022/07/05 07:40:18;;;;;;;5.15;1.83;;;29.10;81.80;;;;;;4943846;28;20198;-72
2022/07/05 07:42:45;;;;;;;4.50;1.40;;;29.20;80.50;;;;;;4960069;28;20861;-72
2022/07/05 07:45:11;;;;;;;5.35;1.55;;;29.30;78.60;;;;;;4945964;28;20223;-70
2022/07/05 07:47:38;;;;;;;4.63;1.60;;;29.30;77.90;;;;;;4950777;28;20198;-72
2022/07/05 07:50:06;;;;;;;2.55;1.55;;;29.40;77.50;;;;;;4959840;28;20288;-73
2022/07/05 07:52:36;;;;;;;3.38;1.30;;;29.50;76.10;;;;;;4948473;28;20194;-71
2022/07/05 07:55:04;;;;;;;4.72;1.70;;;29.60;76.50;;;;;;4948482;28;20309;-72
2022/07/05 07:57:30;;;;;;;5.82;1.50;;;29.70;75.90;;;;;;4949997;28;20202;-70
2022/07/05 07:59:57;;;;;;;2.65;1.55;;;29.80;74.30;;;;;;4948828;28;20545;-71
2022/07/05 08:02:23;;;;;;;4.85;1.50;;;29.90;73.70;;;;;;4958588;28;20195;-72
2022/07/05 08:04:50;;;;;;;3.92;1.52;;;30.00;74.30;;;;;;4953074;28;20571;-70
2022/07/05 08:07:18;;;;;;;3.42;1.85;;;30.00;76.90;;;;;;4947630;28;20201;-71
2022/07/05 08:09:45;;;;;;;3.95;1.60;;;30.10;76.90;;;;;;4950867;28;20257;-72
2022/07/05 08:12:12;;;;;;;5.30;1.73;;;30.20;78.40;;;;;;4957886;28;20229;-70
2022/07/05 08:14:38;;;;;;;3.17;1.90;;;30.30;78.50;;;;;;4949007;28;20190;-71
2022/07/05 08:17:08;;;;;;;3.05;1.70;;;30.40;76.10;;;;;;4948577;28;20226;-72
2022/07/05 08:22:22;;;;;;;4.22;1.98;;;30.60;76.40;;;;;;4946363;28;20687;-73
2022/07/05 08:24:49;;;;;;;3.65;1.80;;;30.60;80.20;;;;;;4948493;28;20186;-69
2022/07/05 08:27:16;;;;;;;3.47;1.45;;;30.80;78.10;;;;;;4963237;28;20616;-69
2022/07/05 08:29:43;;;;;;;4.60;1.60;;;30.80;78.40;;;;;;4947492;28;20338;-70
2022/07/05 08:32:10;;;;;;;3.65;1.90;;;30.90;76.60;;;;;;4941793;29;20998;-73
2022/07/05 08:34:37;;;;;;;3.08;1.80;;;31.00;78.70;;;;;;4928906;29;20198;-71
2022/07/05 08:37:04;;;;;;;4.50;1.95;;;31.10;79.70;;;;;;4950595;28;20198;-73
2022/07/05 08:39:31;;;;;;;7.18;1.77;;;31.20;82.90;;;;;;4948738;28;20315;-70
2022/07/05 08:41:59;;;;;;;4.10;1.85;;;31.30;81.30;;;;;;4957113;28;20240;-72
2022/07/05 08:44:29;;;;;;;4.47;1.90;;;31.50;79.70;;;;;;4969914;28;20584;-72
2022/07/05 08:46:57;;;;;;;4.20;1.92;;;31.50;83.70;;;;;;4968510;28;20978;-70
2022/07/05 08:49:27;;;;;;;8.00;2.22;;;31.60;85.70;;;;;;4961987;28;20195;-71
2022/07/05 08:51:55;;;;;;;9.15;2.20;;;31.70;80.00;;;;;;4945621;28;20411;-72
2022/07/05 08:54:24;;;;;;;3.20;2.22;;;31.80;82.20;;;;;;4946495;28;20203;-72
2022/07/05 08:56:52;;;;;;;4.68;2.08;;;31.80;81.00;;;;;;4948188;28;20199;-71
2022/07/05 08:59:18;;;;;;;4.85;1.98;;;31.90;82.10;;;;;;4945048;28;20198;-72
2022/07/05 09:01:47;;;;;;;5.75;1.73;;;31.90;77.70;;;;;;4950390;29;20245;-70
2022/07/05 09:04:16;;;;;;;4.10;1.70;;;32.00;76.40;;;;;;4962452;28;20298;-70
2022/07/05 09:06:50;;;;;;;4.60;1.70;;;32.10;73.00;;;;;;4947020;28;20194;-71
2022/07/05 09:09:18;;;;;;;4.68;1.67;;;32.00;69.40;;;;;;4939063;28;20187;-71
2022/07/05 09:11:49;;;;;;;5.68;1.77;;;32.00;72.50;;;;;;4949088;28;20222;-72
2022/07/05 09:15:10;;;;;;;6.47;2.15;;;32.10;71.00;;;;;;4945390;28;20265;-72
2022/07/05 09:17:54;;;;;;;4.45;2.17;;;32.20;78.30;;;;;;4940276;28;20580;-71
2022/07/05 09:20:21;;;;;;;4.88;1.92;;;32.30;80.20;;;;;;4929364;29;20294;-71
2022/07/05 09:22:54;;;;;;;4.53;2.00;;;32.50;72.40;;;;;;4928978;28;20182;-71
2022/07/05 09:25:38;;;;;;;4.55;1.83;;;32.40;80.20;;;;;;4936506;28;20288;-72
2022/07/05 09:28:09;;;;;;;6.05;2.22;;;32.60;76.00;;;;;;4939223;28;20184;-71
2022/07/05 09:30:39;;;;;;;5.32;2.05;;;32.70;80.60;;;;;;4916974;29;20238;-72
2022/07/05 09:33:12;;;;;;;7.57;2.20;;;32.70;83.90;;;;;;4914050;28;20241;-71
2022/07/05 09:35:42;;;;;;;6.30;2.03;;;32.80;82.20;;;;;;4944493;28;20326;-72
2022/07/05 09:38:24;;;;;;;6.93;2.97;;;32.80;80.60;;;;;;4908267;28;20273;-70
2022/07/05 09:40:54;;;;;;;7.60;2.40;;;32.90;86.70;;;;;;4945028;28;20478;-71
2022/07/05 09:43:27;;;;;;;6.53;2.47;;;33.00;84.40;;;;;;4947421;28;20198;-71
2022/07/05 09:46:04;;;;;;;5.18;2.42;;;33.00;85.20;;;;;;4934281;29;20659;-72
2022/07/05 09:48:33;;;;;;;5.20;2.33;;;33.10;83.70;;;;;;4936169;28;20202;-71
2022/07/05 09:51:12;;;;;;;4.75;2.25;;;33.20;85.90;;;;;;4945804;28;20245;-70
2022/07/05 09:53:48;;;;;;;7.65;2.72;;;33.30;87.00;;;;;;4950483;28;20543;-73
2022/07/05 09:56:15;;;;;;;7.20;2.55;;;33.30;89.40;;;;;;4949219;28;20261;-73
2022/07/05 09:58:42;;;;;;;10.23;2.92;;;33.40;88.00;;;;;;4950753;28;20191;-71
2022/07/05 10:01:28;;;;;;;7.45;2.80;;;33.40;89.00;;;;;;4945686;28;20202;-70
2022/07/05 10:03:58;;;;;;;10.60;3.00;;;33.30;89.00;;;;;;4928525;29;20186;-71
2022/07/05 10:06:26;;;;;;;7.50;2.83;;;33.30;88.00;;;;;;4940774;28;20194;-71
2022/07/05 10:08:54;;;;;;;9.90;3.00;;;33.30;90.00;;;;;;4943362;28;20722;-71
2022/07/05 10:11:24;;;;;;;7.40;2.75;;;33.20;90.40;;;;;;4942845;28;20222;-70
2022/07/05 10:13:53;;;;;;;8.88;2.72;;;33.20;91.20;;;;;;4947778;28;20187;-71
2022/07/05 10:16:23;;;;;;;7.35;2.88;;;33.30;91.40;;;;;;4949083;28;20218;-70
2022/07/05 10:18:56;;;;;;;8.65;2.78;;;33.30;91.80;;;;;;4950590;28;20281;-68
2022/07/05 10:21:26;;;;;;;10.05;3.15;;;33.30;91.90;;;;;;4948156;28;20187;-69
2022/07/05 10:23:55;;;;;;;9.60;3.20;;;33.30;92.60;;;;;;4948126;28;20191;-69
2022/07/05 10:26:24;;;;;;;6.72;2.80;;;33.30;91.00;;;;;;4946221;28;20199;-70
2022/07/05 10:28:53;;;;;;;9.02;3.42;;;33.30;91.80;;;;;;4954893;28;20599;-69
2022/07/05 10:31:20;;;;;;;12.73;3.40;;;33.50;91.30;;;;;;4944820;28;20195;-70
2022/07/05 10:33:48;;;;;;;12.25;3.03;;;33.40;90.80;;;;;;4942147;28;20213;-70
2022/07/05 10:36:14;;;;;;;6.78;3.00;;;33.40;90.40;;;;;;4947519;28;20218;-68
2022/07/05 10:38:46;;;;;;;9.15;3.42;;;33.30;90.70;;;;;;4950943;28;20542;-69
2022/07/05 10:41:24;;;;;;;5.40;3.00;;;33.30;91.00;;;;;;4944448;28;20529;-70
2022/07/05 10:43:57;;;;;;;8.02;2.80;;;33.30;91.10;;;;;;4944815;28;20337;-71
2022/07/05 10:46:36;;;;;;;6.63;2.95;;;33.30;91.20;;;;;;4958856;28;20202;-70
2022/07/05 10:49:32;;;;;;;7.68;2.58;;;33.30;91.20;;;;;;4952631;28;20191;-70
2022/07/05 10:51:59;;;;;;;11.63;3.40;;;33.20;90.10;;;;;;4930089;28;20213;-68
2022/07/05 10:54:26;;;;;;;10.55;3.35;;;33.10;90.90;;;;;;4942348;28;20199;-69
2022/07/05 10:57:24;;;;;;;12.63;3.17;;;33.20;90.70;;;;;;4947237;29;20289;-71
2022/07/05 11:00:11;;;;;;;6.72;2.88;;;33.20;90.70;;;;;;4943287;29;20214;-69
2022/07/05 11:02:41;;;;;;;8.85;2.78;;;33.30;90.10;;;;;;4944324;28;20277;-71
2022/07/05 11:05:07;;;;;;;9.05;3.08;;;33.30;90.40;;;;;;4940098;29;20194;-69
2022/07/05 11:08:00;;;;;;;7.25;2.90;;;33.30;91.20;;;;;;4959307;28;20225;-68
2022/07/05 11:10:27;;;;;;;7.13;2.58;;;33.30;90.10;;;;;;4939433;28;20209;-70
2022/07/05 11:12:53;;;;;;;6.95;2.85;;;33.30;90.90;;;;;;4944128;28;21065;-69
2022/07/05 11:15:20;;;;;;;8.35;2.95;;;33.20;87.60;;;;;;4942347;28;20292;-70
2022/07/05 11:17:46;;;;;;;9.60;2.80;;;33.10;87.60;;;;;;4944657;28;20203;-69
2022/07/05 11:20:27;;;;;;;8.25;2.83;;;33.00;88.70;;;;;;4966480;28;20210;-70
2022/07/05 11:23:14;;;;;;;6.90;2.55;;;33.10;87.10;;;;;;4953636;28;20186;-70
2022/07/05 11:25:48;;;;;;;9.00;2.85;;;33.00;87.70;;;;;;4965885;28;20338;-70
2022/07/05 11:28:24;;;;;;;6.07;2.72;;;33.00;87.30;;;;;;4949018;28;20541;-69
2022/07/05 11:30:59;;;;;;;10.18;2.80;;;33.00;86.70;;;;;;4943912;28;20249;-70
2022/07/05 11:33:43;;;;;;;8.95;3.17;;;32.90;89.70;;;;;;4958017;28;20206;-70
2022/07/05 11:36:30;;;;;;;5.60;2.70;;;33.00;88.70;;;;;;4957889;28;20214;-70
2022/07/05 11:39:18;;;;;;;6.72;2.83;;;33.10;88.90;;;;;;4963752;28;20343;-71
2022/07/05 11:41:47;;;;;;;9.77;3.28;;;33.00;88.70;;;;;;4948665;28;20228;-70
2022/07/05 11:44:15;;;;;;;11.35;3.00;;;33.10;89.40;;;;;;4948211;29;20199;-69
2022/07/05 11:46:45;;;;;;;5.25;2.75;;;33.00;89.20;;;;;;4953200;28;21017;-69
2022/07/05 11:49:18;;;;;;;9.98;2.92;;;33.00;89.80;;;;;;4944759;28;20659;-69
2022/07/05 11:51:54;;;;;;;10.55;3.00;;;33.10;89.40;;;;;;4962553;28;20254;-67
2022/07/05 11:54:33;;;;;;;7.50;2.70;;;33.10;87.50;;;;;;4946824;28;20204;-70
2022/07/05 11:57:08;;;;;;;5.65;2.92;;;33.00;86.80;;;;;;4944833;28;20526;-69
2022/07/05 11:59:35;;;;;;;13.80;3.30;;;32.90;86.40;;;;;;4947462;28;20659;-68
2022/07/05 12:02:04;;;;;;;8.65;2.70;;;33.00;86.90;;;;;;4951683;28;20655;-70
2022/07/05 12:04:31;;;;;;;7.88;2.78;;;32.90;86.10;;;;;;4962456;28;20553;-70
2022/07/05 12:06:58;;;;;;;5.60;2.70;;;33.00;87.20;;;;;;4945209;28;20190;-69
2022/07/05 12:15:12;;;;;;;5.75;2.47;;;32.80;85.00;;;;;;4958213;28;20207;-70
2022/07/05 12:17:42;;;;;;;7.18;2.72;;;32.80;83.90;;;;;;4948834;28;20199;-70
2022/07/05 12:20:12;;;;;;;7.07;2.50;;;32.80;82.50;;;;;;4959063;28;20191;-73
2022/07/05 12:22:44;;;;;;;6.35;2.60;;;32.70;80.90;;;;;;4946779;28;20183;-69
2022/07/05 12:25:17;;;;;;;9.50;2.70;;;32.70;81.50;;;;;;4926916;28;20198;-70
2022/07/05 12:27:45;;;;;;;5.85;2.58;;;32.80;83.00;;;;;;4945681;28;20211;-70
2022/07/05 12:30:12;;;;;;;18.42;2.92;;;32.80;83.90;;;;;;4945034;28;20190;-69
2022/07/05 12:33:00;;;;;;;8.93;2.85;;;32.70;84.10;;;;;;4944484;28;20282;-69
2022/07/05 12:35:43;;;;;;;5.13;2.50;;;32.80;82.10;;;;;;4960367;28;20236;-69
2022/07/05 12:38:14;;;;;;;4.85;2.00;;;32.60;81.40;;;;;;4953758;28;20194;-70
2022/07/05 12:40:43;;;;;;;6.10;2.28;;;32.60;80.00;;;;;;4977749;28;20298;-69
2022/07/05 12:43:12;;;;;;;8.02;2.53;;;32.80;81.30;;;;;;4949159;28;20193;-70
2022/07/05 12:45:44;;;;;;;6.90;2.58;;;32.80;81.20;;;;;;4952065;28;20186;-71
2022/07/05 12:48:12;;;;;;;4.90;2.20;;;32.80;80.20;;;;;;4950294;28;20277;-69
2022/07/05 12:50:55;;;;;;;5.20;2.22;;;32.80;78.70;;;;;;4950762;29;20187;-68
2022/07/05 12:59:04;;;;;;;5.93;2.60;;;32.80;80.90;;;;;;4950532;28;20186;-70
2022/07/05 13:01:42;;;;;;;9.20;2.28;;;32.80;78.80;;;;;;4950699;29;20182;-71
2022/07/05 13:04:16;;;;;;;5.47;2.50;;;32.90;78.40;;;;;;4950661;29;20237;-72
2022/07/05 13:07:02;;;;;;;6.38;2.50;;;32.90;79.10;;;;;;4952673;28;20268;-72
2022/07/05 13:09:32;;;;;;;9.32;3.17;;;33.00;78.30;;;;;;4950968;28;20198;-70
2022/07/05 13:12:15;;;;;;;6.13;2.40;;;32.90;78.80;;;;;;4950581;28;20221;-70
2022/07/05 13:14:53;;;;;;;4.78;2.30;;;32.80;77.20;;;;;;4951039;28;20178;-71